Arrington, TN (37014)

2:34 PM CDT on May 27, 2017 (GMT -0500)
Osburn Hideaway | | Change Station

Elev 804 ft 35.88 °N, 86.70 °W | Updated 27 seconds ago

Mostly Cloudy
Mostly Cloudy
83.2 °F
Feels Like 90 °F
N
4.0
Wind Variable Wind from WSW

Today
High -- | Low -- °F
--% Chance of Precip.
Yesterday
High -- | Low -- °F
Precip. -- in
Pressure 29.61 in
Visibility 10.0 miles
Clouds Mostly Cloudy 3000 ft
Overcast 3700 ft
Heat Index 90 °F
Dew Point 73 °F
Humidity 73%
Rainfall 0.00 in
Snow Depth Not available.
5:33 AM 7:54 PM
Waxing Crescent, 6% visible
METAR KMQY 271756Z 24010KT 10SM BKN030 OVC037 28/22 A2996 RMK AO2 SLP026 T02780217 10278 20217 55011
Pressure 29.61 in
Visibility 10.0 miles
Clouds Mostly Cloudy 3000 ft
Overcast 3700 ft
Heat Index 90 °F
Dew Point 73 °F
Humidity 73%
Rainfall 0.00 in
Snow Depth Not available.
5:33 AM 7:54 PM
Waxing Crescent, 6% visible
METAR KMQY 271756Z 24010KT 10SM BKN030 OVC037 28/22 A2996 RMK AO2 SLP026 T02780217 10278 20217 55011

Get Severe Weather Alerts

Thanks for signing up!

Be on the lookout for a verification email in your inbox.

You'll start receiving the daily forecast at 6 AM.

×

10-Day Weather Forecast

Almanac

Astronomy

May. 27, 2017 Rise Set
Actual Time
Civil Twilight
Nautical Twilight
Astronomical Twilight
Moon
Length of Visible Light
Length of Day
Tomorrow will be .
, % of the Moon is Illuminated

Today's Extremes

State Highs State Lows

Community

WunderPhotos

Category 6

Welcome to Category 6. This is the collective home for Weather Underground's featured writeups by Dr. Jeff Masters (right), Bob Henson (left), Chris Burt, and other regular contributors.

Nearby

Air Quality

  Air Quality AQ Index Pollutant
Not available.

Snow Depth

Station Depth Elevation

Earthquake Activity

City Distance Mag. Time & Date
Minimum magnitude displayed is 2.5.

Coastal Water Temperatures

Place Temperature

Stations

Nearby Weather Stations

Station Location Temp. Windchill Dew Point Humidity Wind Precip. Elev Updated Type
                   

Watches & Warnings

There are currently no watches in effect.